Killeen, TX (76542)

4:47 AM CDT on May 23, 2017 (GMT -0500)
Estes Dr. | | Change Station

Elev 910 ft 31.10 °N, 97.73 °W | Updated 6 minutes ago

Overcast
Overcast
64.9 °F
Feels Like 64.9 °F
N
0.6
Wind Variable Wind from WSW
Gusts 1.9 mph

Today
High -- | Low -- °F
--% Chance of Precip.
Yesterday
High -- | Low -- °F
Precip. -- in
Pressure 29.90 in
Visibility 5.0 miles
Clouds Mostly Cloudy 300 ft
Overcast 900 ft
Dew Point 63 °F
Humidity 94%
Rainfall 0.00 in
Snow Depth Not available.
6:30 AM 8:24 PM
Waning Crescent, 9% visible
METAR KILE 230856Z AUTO 06010KT 5SM BR BKN003 OVC009 18/18 A2987 RMK AO2 LTG DSNT NE AND E RAB0757E32 SLP124 P0000 60000 T01830178 58008
Pressure 29.90 in
Visibility 5.0 miles
Clouds Mostly Cloudy 300 ft
Overcast 900 ft
Dew Point 63 °F
Humidity 94%
Rainfall 0.00 in
Snow Depth Not available.
6:30 AM 8:24 PM
Waning Crescent, 9% visible
METAR KILE 230856Z AUTO 06010KT 5SM BR BKN003 OVC009 18/18 A2987 RMK AO2 LTG DSNT NE AND E RAB0757E32 SLP124 P0000 60000 T01830178 58008

Get Severe Weather Alerts

Thanks for signing up!

Be on the lookout for a verification email in your inbox.

You'll start receiving the daily forecast at 6 AM.

×

10-Day Weather Forecast

Almanac

Astronomy

May. 23, 2017 Rise Set
Actual Time
Civil Twilight
Nautical Twilight
Astronomical Twilight
Moon
Length of Visible Light
Length of Day
Tomorrow will be .
, % of the Moon is Illuminated

Today's Extremes

State Highs State Lows

Community

WunderPhotos

Category 6

Welcome to Category 6. This is the collective home for Weather Underground's featured writeups by Dr. Jeff Masters (right), Bob Henson (left), Chris Burt, and other regular contributors.

Nearby

Air Quality

  Air Quality AQ Index Pollutant
Not available.

Snow Depth

Station Depth Elevation

Earthquake Activity

City Distance Mag. Time & Date
Minimum magnitude displayed is 2.5.

Coastal Water Temperatures

Place Temperature

Stations

Nearby Weather Stations

Station Location Temp. Windchill Dew Point Humidity Wind Precip. Elev Updated Type
                   

Watches & Warnings

There are currently no watches in effect.